createdAt,value
2022-08-12T00:01:11.336Z,92.40
2022-08-12T00:03:58.102Z,92.70
2022-08-12T00:06:46.194Z,92.80
2022-08-12T00:09:32.179Z,92.80
2022-08-12T00:12:17.646Z,92.90
2022-08-12T00:15:03.549Z,93.40
2022-08-12T00:17:49.738Z,93.40
2022-08-12T00:20:36.755Z,93.50
2022-08-12T00:23:22.417Z,93.50
2022-08-12T00:26:23.156Z,93.20
2022-08-12T00:29:12.584Z,93.40
2022-08-12T00:32:00.450Z,93.70
2022-08-12T00:34:49.098Z,93.90
2022-08-12T00:37:37.896Z,93.80
2022-08-12T00:40:25.899Z,94.10
2022-08-12T00:42:54.772Z,94.20
2022-08-12T00:45:23.268Z,94.80
2022-08-12T00:47:54.632Z,94.70
2022-08-12T00:50:26.415Z,94.70
2022-08-12T00:52:55.681Z,94.80
2022-08-12T00:55:23.614Z,94.90
2022-08-12T00:57:52.208Z,94.80
2022-08-12T01:00:23.619Z,94.90
2022-08-12T01:02:57.468Z,95.10
2022-08-12T01:05:45.123Z,95.70
2022-08-12T01:08:31.948Z,95.90
2022-08-12T01:11:26.316Z,96.30
2022-08-12T01:13:54.728Z,96.50
2022-08-12T01:16:24.081Z,96.70
2022-08-12T01:18:55.733Z,97.00
2022-08-12T01:21:57.718Z,97.20
2022-08-12T01:24:54.199Z,97.60
2022-08-12T01:27:24.446Z,97.80
2022-08-12T01:29:54.789Z,97.80
2022-08-12T01:32:27.438Z,97.70
2022-08-12T01:35:05.733Z,97.90
2022-08-12T01:37:38.130Z,98.20
2022-08-12T01:40:34.370Z,98.20
2022-08-12T01:43:09.075Z,98.30
2022-08-12T01:45:46.841Z,98.30
2022-08-12T01:48:26.232Z,98.80
2022-08-12T01:51:06.243Z,99.40
2022-08-12T01:53:50.642Z,99.80
2022-08-12T01:56:25.995Z,99.80
2022-08-12T01:59:18.156Z,99.70
2022-08-12T02:01:51.284Z,99.90
2022-08-12T02:04:52.827Z,99.90
2022-08-12T02:07:56.434Z,99.90
2022-08-12T02:10:59.313Z,99.90
2022-08-12T02:14:02.962Z,99.90
2022-08-12T02:16:47.383Z,99.90
2022-08-12T02:19:35.819Z,99.90
2022-08-12T02:22:23.710Z,99.90
2022-08-12T02:24:55.069Z,99.90
2022-08-12T02:27:27.615Z,99.90
2022-08-12T02:29:57.298Z,99.90
2022-08-12T02:32:25.489Z,99.90
2022-08-12T02:34:53.657Z,99.90
2022-08-12T02:37:24.823Z,99.90
2022-08-12T02:39:56.469Z,99.90
2022-08-12T02:42:29.007Z,99.90
2022-08-12T02:45:06.466Z,99.90
2022-08-12T02:47:59.805Z,99.90
2022-08-12T02:50:34.821Z,99.90
2022-08-12T02:53:05.257Z,99.90
2022-08-12T02:55:37.036Z,99.90
2022-08-12T02:58:12.704Z,99.90
2022-08-12T03:00:45.098Z,99.90
2022-08-12T03:03:15.825Z,99.90
2022-08-12T03:05:52.436Z,99.90
2022-08-12T03:08:31.891Z,99.90
2022-08-12T03:11:06.171Z,99.90
2022-08-12T03:13:47.999Z,99.90
2022-08-12T03:16:17.688Z,99.90
2022-08-12T03:18:46.800Z,99.90
2022-08-12T03:21:55.678Z,99.90
2022-08-12T03:24:10.250Z,99.90
2022-08-12T03:26:38.594Z,99.90
2022-08-12T03:29:07.947Z,99.90
2022-08-12T03:31:37.279Z,99.90
2022-08-12T03:34:08.550Z,99.90
2022-08-12T03:36:40.221Z,99.90
2022-08-12T03:39:36.105Z,99.90
2022-08-12T03:42:23.179Z,99.90
2022-08-12T03:45:26.667Z,99.90
2022-08-12T03:48:19.079Z,99.90
2022-08-12T03:51:06.895Z,99.90
2022-08-12T03:53:53.448Z,99.90
2022-08-12T03:56:39.015Z,99.90
2022-08-12T03:59:26.490Z,99.90
2022-08-12T04:01:57.702Z,99.90
2022-08-12T04:04:34.159Z,99.90
2022-08-12T04:07:04.511Z,99.90
2022-08-12T04:09:33.532Z,99.90
2022-08-12T04:12:19.700Z,99.90
2022-08-12T04:14:48.232Z,99.90
2022-08-12T04:17:17.145Z,99.90
2022-08-12T04:19:48.012Z,99.90
2022-08-12T04:22:16.477Z,99.90
2022-08-12T04:24:50.351Z,99.90
2022-08-12T04:27:18.778Z,99.90
2022-08-12T04:30:32.969Z,99.90
2022-08-12T04:32:40.829Z,99.90
2022-08-12T04:35:13.747Z,99.90
2022-08-12T04:37:59.195Z,99.90
2022-08-12T04:40:31.063Z,99.90
2022-08-12T04:43:01.103Z,99.90
2022-08-12T04:45:30.289Z,99.90
2022-08-12T04:47:58.710Z,99.90
2022-08-12T04:50:35.641Z,99.90
2022-08-12T04:53:06.672Z,99.90
2022-08-12T04:55:38.772Z,99.90
2022-08-12T04:58:07.396Z,99.90
2022-08-12T05:00:36.171Z,99.90
2022-08-12T05:03:05.572Z,99.90
2022-08-12T05:05:37.853Z,99.90
2022-08-12T05:08:11.961Z,99.90
2022-08-12T05:10:40.182Z,99.90
2022-08-12T05:13:14.302Z,99.90
2022-08-12T05:16:02.423Z,99.90
2022-08-12T05:18:33.635Z,99.90
2022-08-12T05:21:05.480Z,99.90
2022-08-12T05:23:33.833Z,99.90
2022-08-12T05:26:01.912Z,99.90
2022-08-12T05:28:31.049Z,99.90
2022-08-12T05:31:01.726Z,99.90
2022-08-12T05:33:37.461Z,99.90
2022-08-12T05:36:10.132Z,99.90
2022-08-12T05:38:55.910Z,99.90
2022-08-12T05:41:24.578Z,99.90
2022-08-12T05:43:55.542Z,99.90
2022-08-12T05:46:26.317Z,99.90
2022-08-12T05:48:55.427Z,99.90
2022-08-12T05:51:32.302Z,99.90
2022-08-12T05:54:10.410Z,99.90
2022-08-12T05:56:40.051Z,99.90
2022-08-12T05:59:11.241Z,99.90
2022-08-12T06:02:11.828Z,99.90
2022-08-12T06:04:32.232Z,99.90
2022-08-12T06:07:02.688Z,99.90
2022-08-12T06:09:50.624Z,99.90
2022-08-12T06:12:23.348Z,99.90
2022-08-12T06:14:51.315Z,99.90
2022-08-12T06:17:19.391Z,99.90
2022-08-12T06:20:26.797Z,99.90
2022-08-12T06:22:39.637Z,99.90
2022-08-12T06:25:09.292Z,99.90
2022-08-12T06:28:08.060Z,99.90
2022-08-12T06:30:39.087Z,99.90
2022-08-12T06:33:23.052Z,99.90
2022-08-12T06:35:58.706Z,99.90
2022-08-12T06:38:30.635Z,99.90
2022-08-12T06:41:21.587Z,99.90
2022-08-12T06:44:06.982Z,99.90
2022-08-12T06:46:38.724Z,99.90
2022-08-12T06:49:06.840Z,99.90
2022-08-12T06:51:34.890Z,99.90
2022-08-12T06:54:04.896Z,99.90
2022-08-12T06:57:02.479Z,99.90
2022-08-12T06:59:21.646Z,99.90
2022-08-12T07:01:51.647Z,99.90
2022-08-12T07:04:37.857Z,99.90
2022-08-12T07:07:08.714Z,99.90
2022-08-12T07:10:04.298Z,99.90
2022-08-12T07:12:28.491Z,99.90
2022-08-12T07:14:57.857Z,99.90
2022-08-12T07:17:26.651Z,99.90
2022-08-12T07:19:57.988Z,99.90
2022-08-12T07:22:28.607Z,99.90
2022-08-12T07:25:11.858Z,99.90
2022-08-12T07:27:42.603Z,99.90
2022-08-12T07:30:12.213Z,99.90
2022-08-12T07:32:40.314Z,99.90
2022-08-12T07:35:09.577Z,99.90
2022-08-12T07:37:42.668Z,99.90
2022-08-12T07:40:13.133Z,99.90
2022-08-12T07:42:44.086Z,99.90
2022-08-12T07:45:13.757Z,99.90
2022-08-12T07:47:43.808Z,99.90
2022-08-12T07:50:13.937Z,99.90
2022-08-12T07:52:47.029Z,99.90
2022-08-12T07:55:19.118Z,99.90
2022-08-12T07:57:54.186Z,99.90
2022-08-12T08:00:23.203Z,99.50
2022-08-12T08:02:54.497Z,98.80
2022-08-12T08:05:24.965Z,98.10
2022-08-12T08:07:55.594Z,97.80
2022-08-12T08:10:26.188Z,97.80
2022-08-12T08:12:58.776Z,96.50
2022-08-12T08:16:01.368Z,95.70
2022-08-12T08:18:26.377Z,95.60
2022-08-12T08:20:57.483Z,95.40
2022-08-12T08:23:46.548Z,94.70
2022-08-12T08:26:18.774Z,94.40
2022-08-12T08:28:46.802Z,93.70
2022-08-12T08:31:15.035Z,93.50
2022-08-12T08:34:09.292Z,93.50
2022-08-12T08:36:31.005Z,92.70
2022-08-12T08:38:59.063Z,92.60
2022-08-12T08:42:19.266Z,92.70
2022-08-12T08:44:38.098Z,91.90
2022-08-12T08:47:06.615Z,91.50
2022-08-12T08:49:37.310Z,91.80
2022-08-12T08:52:07.180Z,91.20
2022-08-12T08:54:37.524Z,90.80
2022-08-12T08:57:09.637Z,89.90
2022-08-12T08:59:38.052Z,90.00
2022-08-12T09:02:07.667Z,90.00
2022-08-12T09:05:12.892Z,90.00
2022-08-12T09:07:51.872Z,90.00
2022-08-12T09:10:30.647Z,89.50
2022-08-12T09:16:07.791Z,90.50
2022-08-12T09:18:36.058Z,90.60
2022-08-12T09:21:06.470Z,90.50
2022-08-12T09:23:59.195Z,89.30
2022-08-12T09:29:14.062Z,88.50
2022-08-12T09:32:04.338Z,88.70
2022-08-12T09:34:34.098Z,88.90
2022-08-12T09:37:19.405Z,87.90
2022-08-12T09:40:03.158Z,88.00
2022-08-12T09:46:20.507Z,86.00
2022-08-12T09:48:39.240Z,85.90
2022-08-12T09:51:22.046Z,85.00
2022-08-12T09:54:05.970Z,83.60
2022-08-12T09:57:00.128Z,83.30
2022-08-12T10:00:13.440Z,82.40
2022-08-12T10:02:44.740Z,81.10
2022-08-12T10:05:13.936Z,80.90
2022-08-12T10:07:45.997Z,80.60
2022-08-12T10:10:24.419Z,79.10
2022-08-12T10:13:34.561Z,78.50
2022-08-12T10:16:06.198Z,77.90
2022-08-12T10:18:51.783Z,78.20
2022-08-12T10:21:23.735Z,78.20
2022-08-12T10:23:56.634Z,77.10
2022-08-12T10:26:44.814Z,76.20
2022-08-12T10:30:03.018Z,76.30
2022-08-12T10:32:43.098Z,74.70
2022-08-12T10:35:16.811Z,75.00
2022-08-12T10:38:37.601Z,74.50
2022-08-12T10:40:55.791Z,74.10
2022-08-12T10:43:55.527Z,74.10
2022-08-12T10:46:30.966Z,73.00
2022-08-12T10:49:06.417Z,73.60
2022-08-12T10:52:32.423Z,72.70
2022-08-12T10:54:41.772Z,73.40
2022-08-12T10:57:18.153Z,73.90
2022-08-12T11:00:30.844Z,72.90
2022-08-12T11:04:34.314Z,72.10
2022-08-12T11:07:09.012Z,70.70
2022-08-12T11:08:43.129Z,70.50
2022-08-12T11:11:16.921Z,70.00
2022-08-12T11:13:48.744Z,69.30
2022-08-12T11:16:22.643Z,69.40
2022-08-12T11:18:54.718Z,69.80
2022-08-12T11:21:56.930Z,68.90
2022-08-12T11:24:18.791Z,69.00
2022-08-12T11:27:01.211Z,69.10
2022-08-12T11:30:01.472Z,69.50
2022-08-12T11:32:19.891Z,69.40
2022-08-12T11:34:53.194Z,69.00
2022-08-12T11:37:26.067Z,68.90
2022-08-12T11:42:35.955Z,68.20
2022-08-12T11:45:10.455Z,67.20
2022-08-12T11:47:40.289Z,67.80
2022-08-12T11:50:11.745Z,67.70
2022-08-12T11:52:55.269Z,67.70
2022-08-12T11:55:27.568Z,67.20
2022-08-12T11:58:14.252Z,67.00
2022-08-12T12:03:44.194Z,67.10
2022-08-12T12:06:16.943Z,66.90
2022-08-12T12:08:51.088Z,66.70
2022-08-12T12:11:23.185Z,67.50
2022-08-12T12:14:07.371Z,67.40
2022-08-12T12:16:40.083Z,67.50
2022-08-12T12:19:10.664Z,67.10
2022-08-12T12:21:47.771Z,67.40
2022-08-12T12:24:21.132Z,67.00
2022-08-12T12:27:00.674Z,66.90
2022-08-12T12:30:17.893Z,67.30
2022-08-12T12:32:19.516Z,67.40
2022-08-12T12:35:44.426Z,67.20
2022-08-12T12:38:04.356Z,67.40
2022-08-12T12:40:44.148Z,67.00
2022-08-12T12:43:14.535Z,67.20
2022-08-12T12:45:46.477Z,67.40
2022-08-12T12:48:17.815Z,67.90
2022-08-12T12:51:09.309Z,68.10
2022-08-12T12:54:06.868Z,67.70
2022-08-12T12:56:34.745Z,67.90
2022-08-12T12:59:06.073Z,68.00
2022-08-12T13:01:38.401Z,67.80
2022-08-12T13:04:13.617Z,68.30
2022-08-12T13:06:42.855Z,68.70
2022-08-12T13:09:13.516Z,68.50
2022-08-12T13:11:44.674Z,68.50
2022-08-12T13:14:28.671Z,68.60
2022-08-12T13:17:01.055Z,68.60
2022-08-12T13:19:37.850Z,68.70
2022-08-12T13:22:18.469Z,68.70
2022-08-12T13:24:54.815Z,68.90
2022-08-12T13:27:28.138Z,69.10
2022-08-12T13:30:03.618Z,69.10
2022-08-12T13:32:32.190Z,69.20
2022-08-12T13:35:03.871Z,69.40
2022-08-12T13:37:43.889Z,69.40
2022-08-12T13:40:20.991Z,69.20
2022-08-12T13:42:57.366Z,68.60
2022-08-12T13:45:29.055Z,68.70
2022-08-12T13:48:00.274Z,68.40
2022-08-12T13:50:32.455Z,68.30
2022-08-12T13:53:22.963Z,68.40
2022-08-12T13:56:01.303Z,68.60
2022-08-12T13:58:34.652Z,68.70
2022-08-12T14:01:06.179Z,68.80
2022-08-12T14:03:49.979Z,68.20
2022-08-12T14:06:18.902Z,68.20
2022-08-12T14:08:50.157Z,68.20
2022-08-12T14:11:25.409Z,68.00
2022-08-12T14:14:05.124Z,68.00
2022-08-12T14:16:48.849Z,68.10
2022-08-12T14:19:22.203Z,68.10
2022-08-12T14:22:01.358Z,67.70
2022-08-12T14:24:35.329Z,67.90
2022-08-12T14:27:08.764Z,68.00
2022-08-12T14:30:04.412Z,68.00
2022-08-12T14:32:34.811Z,67.50
2022-08-12T14:35:05.166Z,68.10
2022-08-12T14:37:55.016Z,68.50
2022-08-12T14:40:28.024Z,68.60
2022-08-12T14:42:57.489Z,68.60
2022-08-12T14:45:44.488Z,69.50
2022-08-12T14:48:18.432Z,68.80
2022-08-12T14:52:10.774Z,68.70
2022-08-12T14:55:18.251Z,68.60
2022-08-12T14:59:58.126Z,69.00
2022-08-12T15:02:20.867Z,69.00
2022-08-12T15:04:55.882Z,69.30
2022-08-12T15:07:33.728Z,69.10
2022-08-12T15:10:13.414Z,69.30
2022-08-12T15:12:41.824Z,68.60
2022-08-12T15:15:11.379Z,68.80
2022-08-12T15:17:40.570Z,68.40
2022-08-12T15:20:33.513Z,68.70
2022-08-12T15:22:59.909Z,68.90
2022-08-12T15:25:28.639Z,68.60
2022-08-12T15:28:05.449Z,69.00
2022-08-12T15:30:47.633Z,69.20
2022-08-12T15:33:20.958Z,69.10
2022-08-12T15:35:53.810Z,69.10
2022-08-12T15:38:28.229Z,69.40
2022-08-12T15:40:59.133Z,69.40
2022-08-12T15:43:52.114Z,69.60
2022-08-12T15:46:21.145Z,69.90
2022-08-12T15:48:53.526Z,68.90
2022-08-12T15:51:58.566Z,69.70
2022-08-12T15:54:33.104Z,68.90
2022-08-12T15:57:07.556Z,68.80
2022-08-12T16:00:03.647Z,68.80
2022-08-12T16:02:29.880Z,69.00
2022-08-12T16:04:58.583Z,69.20
2022-08-12T16:07:30.946Z,69.10
2022-08-12T16:10:06.737Z,69.10
2022-08-12T16:12:55.075Z,69.20
2022-08-12T16:15:26.686Z,68.60
2022-08-12T16:18:19.374Z,68.50
2022-08-12T16:20:47.298Z,68.80
2022-08-12T16:23:35.740Z,69.80
2022-08-12T16:26:15.145Z,70.30
2022-08-12T16:28:48.441Z,70.50
2022-08-12T16:31:23.578Z,70.70
2022-08-12T16:33:59.208Z,70.60
2022-08-12T16:36:30.112Z,71.10
2022-08-12T16:39:01.212Z,71.30
2022-08-12T16:41:38.132Z,71.50
2022-08-12T16:44:08.926Z,71.80
2022-08-12T16:46:38.024Z,71.70
2022-08-12T16:49:13.244Z,71.20
2022-08-12T16:51:46.877Z,70.80
2022-08-12T16:54:18.509Z,70.90
2022-08-12T16:56:54.654Z,71.70
2022-08-12T16:59:26.298Z,71.90
2022-08-12T17:02:00.361Z,71.70
2022-08-12T17:04:29.112Z,72.30
2022-08-12T17:06:57.050Z,72.50
2022-08-12T17:09:39.785Z,72.80
2022-08-12T17:12:09.547Z,72.80
2022-08-12T17:14:37.934Z,73.10
2022-08-12T17:17:26.062Z,73.30
2022-08-12T17:20:34.829Z,74.30
2022-08-12T17:22:57.462Z,74.60
2022-08-12T17:25:27.257Z,75.30
2022-08-12T17:27:58.963Z,75.20
2022-08-12T17:30:29.845Z,75.80
2022-08-12T17:33:02.696Z,76.10
2022-08-12T17:35:37.488Z,76.00
2022-08-12T17:38:13.370Z,76.30
2022-08-12T17:40:47.512Z,76.30
2022-08-12T17:43:56.220Z,76.60
2022-08-12T17:46:12.994Z,76.50
2022-08-12T17:48:55.081Z,77.10
2022-08-12T17:51:31.447Z,77.20
2022-08-12T17:54:11.847Z,77.40
2022-08-12T17:56:43.628Z,77.50
2022-08-12T17:59:13.130Z,77.80
2022-08-12T18:01:45.295Z,78.00
2022-08-12T18:04:21.365Z,78.10
2022-08-12T18:06:50.904Z,78.10
2022-08-12T18:09:22.078Z,78.20
2022-08-12T18:12:12.805Z,78.30
2022-08-12T18:14:47.734Z,78.50
2022-08-12T18:17:17.929Z,78.60
2022-08-12T18:20:05.284Z,78.50
2022-08-12T18:22:35.009Z,78.70
2022-08-12T18:25:06.801Z,79.00
2022-08-12T18:27:47.309Z,79.00
2022-08-12T18:30:29.512Z,79.20
2022-08-12T18:33:03.618Z,79.30
2022-08-12T18:35:46.635Z,79.40
2022-08-12T18:38:22.358Z,79.50
2022-08-12T18:41:10.277Z,79.60
2022-08-12T18:43:58.726Z,79.80
2022-08-12T18:46:47.243Z,80.00
2022-08-12T18:49:20.068Z,80.10
2022-08-12T18:52:02.333Z,80.50
2022-08-12T18:54:35.794Z,80.70
2022-08-12T18:57:16.581Z,80.80
2022-08-12T19:00:02.026Z,81.00
2022-08-12T19:02:39.958Z,81.00
2022-08-12T19:05:12.095Z,81.20
2022-08-12T19:07:49.944Z,81.50
2022-08-12T19:10:31.509Z,81.70
2022-08-12T19:13:20.979Z,82.20
2022-08-12T19:15:54.920Z,82.20
2022-08-12T19:18:30.117Z,82.30
2022-08-12T19:21:11.762Z,82.70
2022-08-12T19:23:43.632Z,82.60
2022-08-12T19:26:12.771Z,82.70
2022-08-12T19:28:41.691Z,82.90
2022-08-12T19:31:56.927Z,83.00
2022-08-12T19:37:27.063Z,83.30
2022-08-12T19:40:09.397Z,83.20
2022-08-12T19:42:53.617Z,83.20
2022-08-12T19:45:22.611Z,83.50
2022-08-12T19:47:52.762Z,83.90
2022-08-12T19:50:20.840Z,84.20
2022-08-12T19:52:51.110Z,84.20
2022-08-12T19:55:22.444Z,84.80
2022-08-12T19:58:02.345Z,85.10
2022-08-12T20:00:35.039Z,85.00
2022-08-12T20:03:07.624Z,86.10
2022-08-12T20:06:07.232Z,85.90
2022-08-12T20:08:34.261Z,86.40
2022-08-12T20:12:09.017Z,86.70
2022-08-12T20:14:01.317Z,87.00
2022-08-12T20:16:52.806Z,87.40
2022-08-12T20:19:24.561Z,87.40
2022-08-12T20:22:23.493Z,87.50
2022-08-12T20:24:55.379Z,88.10
2022-08-12T20:27:29.869Z,88.10
2022-08-12T20:30:15.983Z,88.90
2022-08-12T20:32:54.946Z,89.00
2022-08-12T20:36:06.257Z,88.90
2022-08-12T20:38:26.713Z,88.70
2022-08-12T20:40:56.017Z,88.60
2022-08-12T20:43:28.309Z,89.20
2022-08-12T20:46:00.160Z,90.20
2022-08-12T20:48:28.818Z,90.30
2022-08-12T20:51:04.623Z,90.70
2022-08-12T20:53:57.997Z,90.80
2022-08-12T20:56:30.990Z,91.30
2022-08-12T20:59:02.540Z,92.10
2022-08-12T21:01:46.309Z,92.60
2022-08-12T21:04:34.553Z,92.70
2022-08-12T21:07:09.411Z,92.70
2022-08-12T21:09:42.688Z,92.90
2022-08-12T21:12:28.509Z,93.00
2022-08-12T21:15:23.920Z,93.20
2022-08-12T21:18:12.016Z,93.50
2022-08-12T21:20:52.566Z,93.50
2022-08-12T21:23:23.403Z,93.80
2022-08-12T21:25:56.821Z,93.70
2022-08-12T21:28:31.655Z,93.70
2022-08-12T21:32:37.546Z,94.00
2022-08-12T21:34:07.451Z,94.30
2022-08-12T21:36:40.415Z,94.30
2022-08-12T21:39:21.842Z,94.50
2022-08-12T21:41:54.248Z,94.70
2022-08-12T21:45:44.040Z,95.10
2022-08-12T21:47:21.366Z,95.40
2022-08-12T21:50:03.974Z,95.80
2022-08-12T21:52:41.141Z,96.00
2022-08-12T21:55:19.692Z,96.00
2022-08-12T21:57:54.555Z,96.20
2022-08-12T22:00:35.082Z,96.20
2022-08-12T22:04:01.794Z,96.40
2022-08-12T22:06:30.583Z,96.70
2022-08-12T22:09:07.442Z,97.00
2022-08-12T22:11:41.552Z,97.10
2022-08-12T22:14:21.357Z,97.50
2022-08-12T22:16:51.918Z,97.80
2022-08-12T22:19:21.189Z,97.80
2022-08-12T22:21:54.011Z,97.90
2022-08-12T22:24:26.568Z,97.90
2022-08-12T22:27:08.109Z,98.10
2022-08-12T22:30:06.928Z,98.10
2022-08-12T22:32:38.602Z,98.30
2022-08-12T22:35:29.555Z,98.60
2022-08-12T22:38:10.765Z,98.50
2022-08-12T22:40:39.582Z,98.80
2022-08-12T22:43:31.316Z,99.00
2022-08-12T22:46:17.058Z,99.00
2022-08-12T22:48:50.479Z,99.10
2022-08-12T22:51:22.379Z,99.90
2022-08-12T22:53:54.399Z,99.90
2022-08-12T22:56:30.926Z,99.90
2022-08-12T22:59:03.069Z,99.90
2022-08-12T23:01:52.204Z,99.90
2022-08-12T23:04:27.631Z,99.90
2022-08-12T23:07:05.141Z,99.90
2022-08-12T23:09:48.032Z,99.90
2022-08-12T23:12:37.494Z,99.90
2022-08-12T23:15:10.660Z,99.90
2022-08-12T23:17:40.835Z,99.90
2022-08-12T23:20:12.895Z,99.90
2022-08-12T23:22:41.011Z,99.90
2022-08-12T23:25:20.871Z,99.90
2022-08-12T23:28:29.788Z,99.90
2022-08-12T23:31:04.131Z,99.90
2022-08-12T23:34:00.708Z,99.90
2022-08-12T23:36:32.698Z,99.90
2022-08-12T23:40:06.705Z,99.90
2022-08-12T23:42:17.880Z,99.90
2022-08-12T23:44:52.493Z,99.90
2022-08-12T23:47:22.991Z,99.90
2022-08-12T23:49:58.128Z,99.90
2022-08-12T23:52:30.585Z,99.90
2022-08-12T23:55:23.570Z,99.90
2022-08-12T23:58:21.412Z,99.90
